Terminal Aerodrome Forecast
Issued by NWS Raleigh/Durham, NC

Home | Current Version | Previous Version | Text Only | Print | Product List | Glossary On
Versions: 1 2 3 4 5 6 7 8 9 10 11 12 13 14 15 16 17 18 19
000
FTUS42 KRAH 280542
TAFGSO
TAF
KGSO 280542Z 2806/2906 VRB03KT P6SM BKN250
     FM280900 VRB04KT 4SM BR SCT005
     FM281500 05008KT P6SM SCT250=

USA.gov is the U.S. government's official web portal to all federal, state and local government web resources and services.